Time;durP1;ratioP1;P1;durP2;ratioP2;P2;SDS_P1;SDS_P2;PMS_P1;PMS_P2;Temp;Humidity;BMP_temperature;BMP_pressure;BME280_temperature;BME280_humidity;BME280_pressure;Samples;Min_cycle;Max_cycle;Signal;HPM_P1;HPM_P2
2021/08/17 00:02:25;;;;;;;30.98;8.82;;;23.90;99.90;;;;;;5049327;28;20040;-48
2021/08/17 00:05:30;;;;;;;35.92;9.02;;;23.90;99.90;;;;;;5049016;28;20040;-48
2021/08/17 00:08:35;;;;;;;24.02;7.78;;;23.80;99.90;;;;;;5049214;28;20064;-47
2021/08/17 00:11:39;;;;;;;28.25;9.75;;;23.80;99.90;;;;;;5049141;28;20048;-47
2021/08/17 00:14:43;;;;;;;23.70;7.88;;;23.80;99.90;;;;;;5049353;28;20521;-48
2021/08/17 00:17:47;;;;;;;22.08;7.95;;;23.70;99.90;;;;;;5049613;28;20048;-48
2021/08/17 00:20:52;;;;;;;23.27;8.65;;;23.80;99.90;;;;;;5049513;28;20064;-48
2021/08/17 00:23:57;;;;;;;27.08;8.93;;;23.80;99.90;;;;;;5049753;28;20414;-49
2021/08/17 00:27:02;;;;;;;24.92;7.90;;;23.80;99.90;;;;;;5049523;28;20039;-47
2021/08/17 00:30:08;;;;;;;26.63;8.32;;;23.80;99.90;;;;;;5049651;28;20052;-48
2021/08/17 00:33:13;;;;;;;23.15;8.02;;;23.80;99.90;;;;;;5049635;28;20052;-48
2021/08/17 00:36:17;;;;;;;30.00;7.60;;;23.80;99.90;;;;;;5049517;28;20403;-48
2021/08/17 00:39:22;;;;;;;25.75;9.02;;;23.80;99.90;;;;;;5049416;28;20052;-48
2021/08/17 00:42:40;;;;;;;27.92;8.57;;;23.80;99.90;;;;;;5049474;28;20411;-48
2021/08/17 00:45:44;;;;;;;35.10;9.02;;;23.70;99.90;;;;;;5048870;28;20040;-47
2021/08/17 00:48:49;;;;;;;25.35;9.05;;;23.70;99.90;;;;;;5049229;28;20056;-48
2021/08/17 00:52:05;;;;;;;25.45;8.65;;;23.70;99.90;;;;;;5049454;28;20514;-47
2021/08/17 00:55:10;;;;;;;36.28;8.75;;;23.70;99.90;;;;;;5048911;28;20052;-48
2021/08/17 00:58:15;;;;;;;23.90;8.18;;;23.60;99.90;;;;;;5049054;28;20040;-47
2021/08/17 01:01:20;;;;;;;27.27;7.63;;;23.60;99.90;;;;;;5052408;28;20048;-48
2021/08/17 01:04:28;;;;;;;30.85;7.72;;;23.60;99.90;;;;;;5052784;28;20072;-47
2021/08/17 01:07:33;;;;;;;26.38;8.55;;;23.50;99.90;;;;;;5052445;28;20406;-47
2021/08/17 01:10:40;;;;;;;30.92;8.80;;;23.50;99.90;;;;;;5052188;28;20052;-48
2021/08/17 01:13:44;;;;;;;24.20;7.72;;;23.50;99.90;;;;;;5052364;28;20338;-48
2021/08/17 01:16:50;;;;;;;29.13;7.97;;;23.40;99.90;;;;;;5052198;28;20040;-48
2021/08/17 01:19:55;;;;;;;33.78;9.20;;;23.50;99.90;;;;;;5052122;28;20517;-48
2021/08/17 01:22:59;;;;;;;30.05;8.30;;;23.50;99.90;;;;;;5052350;28;20055;-48
2021/08/17 01:26:04;;;;;;;26.35;7.25;;;23.50;99.90;;;;;;5052263;28;20048;-47
2021/08/17 01:29:10;;;;;;;33.88;9.18;;;23.40;99.90;;;;;;5052202;28;20056;-50
2021/08/17 01:32:18;;;;;;;38.88;8.73;;;23.40;99.90;;;;;;5052158;28;20036;-48
2021/08/17 01:35:22;;;;;;;27.33;7.75;;;23.40;99.90;;;;;;5051850;28;20056;-47
2021/08/17 01:38:27;;;;;;;25.77;6.75;;;23.30;99.90;;;;;;5052000;28;20530;-48
2021/08/17 01:41:31;;;;;;;24.30;7.05;;;23.30;99.90;;;;;;5051955;28;20044;-48
2021/08/17 01:44:35;;;;;;;30.73;7.97;;;23.20;99.90;;;;;;5051652;28;20053;-48
2021/08/17 01:47:39;;;;;;;29.02;6.90;;;23.20;99.90;;;;;;5051410;28;20067;-48
2021/08/17 01:50:43;;;;;;;26.10;7.95;;;23.10;99.90;;;;;;5051753;28;20056;-47
2021/08/17 01:53:47;;;;;;;24.73;7.25;;;23.10;99.90;;;;;;5051593;28;20047;-48
2021/08/17 01:56:52;;;;;;;25.30;7.93;;;23.10;99.90;;;;;;5042310;28;20040;-48
2021/08/17 01:59:57;;;;;;;31.35;8.43;;;23.00;99.90;;;;;;5033824;28;20049;-47
2021/08/17 02:03:01;;;;;;;25.83;7.28;;;23.00;99.90;;;;;;5031005;28;20051;-50
2021/08/17 02:06:07;;;;;;;22.73;7.68;;;23.00;99.90;;;;;;5043724;28;20040;-47
2021/08/17 02:09:11;;;;;;;32.25;7.63;;;22.90;99.90;;;;;;5051313;28;20051;-48
2021/08/17 02:12:16;;;;;;;21.52;7.25;;;22.90;99.90;;;;;;5051025;28;20040;-48
2021/08/17 02:15:20;;;;;;;25.80;7.32;;;22.90;99.90;;;;;;5051107;28;20051;-47
2021/08/17 02:18:24;;;;;;;31.20;7.40;;;22.80;99.90;;;;;;5050685;28;20514;-49
2021/08/17 02:21:28;;;;;;;23.25;7.32;;;22.80;99.90;;;;;;5051154;28;20044;-47
2021/08/17 02:24:32;;;;;;;31.42;8.57;;;22.80;99.90;;;;;;5051037;28;20051;-48
2021/08/17 02:27:37;;;;;;;25.63;7.05;;;22.80;99.90;;;;;;5050220;28;20052;-47
2021/08/17 02:30:43;;;;;;;33.05;8.25;;;22.70;99.90;;;;;;5051019;28;20514;-48
2021/08/17 02:33:47;;;;;;;22.70;7.00;;;22.60;99.90;;;;;;5050946;28;20043;-47
2021/08/17 02:36:53;;;;;;;29.45;8.77;;;22.70;99.90;;;;;;5050528;28;20043;-48
2021/08/17 02:39:57;;;;;;;28.00;7.03;;;22.60;99.90;;;;;;5050731;28;20044;-47
2021/08/17 02:43:01;;;;;;;33.05;6.80;;;22.60;99.90;;;;;;5050653;28;20045;-48
2021/08/17 02:46:06;;;;;;;20.65;7.35;;;22.60;99.90;;;;;;5050499;28;20047;-47
2021/08/17 02:49:10;;;;;;;21.42;7.00;;;22.60;99.90;;;;;;5050532;28;20044;-47
2021/08/17 02:52:14;;;;;;;20.40;7.00;;;22.60;99.90;;;;;;5050374;28;20047;-47
2021/08/17 02:55:18;;;;;;;23.05;7.07;;;22.60;99.90;;;;;;5050562;28;20036;-48
2021/08/17 02:58:23;;;;;;;35.67;7.35;;;22.60;99.90;;;;;;5050009;28;20044;-47
2021/08/17 03:01:27;;;;;;;31.95;7.70;;;22.50;99.90;;;;;;5050631;28;20040;-48
2021/08/17 03:04:32;;;;;;;25.70;7.38;;;22.50;99.90;;;;;;5050408;28;20035;-49
2021/08/17 03:07:35;;;;;;;33.25;8.15;;;22.40;99.90;;;;;;5050283;28;20052;-49
2021/08/17 03:10:41;;;;;;;27.85;7.90;;;22.30;99.90;;;;;;5050592;28;20048;-49
2021/08/17 03:13:45;;;;;;;24.90;7.25;;;22.30;99.90;;;;;;5050437;28;20040;-49
2021/08/17 03:16:49;;;;;;;28.80;7.28;;;22.20;99.90;;;;;;5050744;28;20039;-48
2021/08/17 03:19:55;;;;;;;23.20;7.28;;;22.20;99.90;;;;;;5050407;28;20047;-50
2021/08/17 03:22:59;;;;;;;24.00;7.60;;;22.20;99.90;;;;;;5049854;28;20044;-51
2021/08/17 03:26:03;;;;;;;27.50;7.75;;;22.20;99.90;;;;;;5050137;28;20044;-51
2021/08/17 03:29:07;;;;;;;30.02;7.90;;;22.10;99.90;;;;;;5049561;28;20052;-52
2021/08/17 03:32:11;;;;;;;23.73;7.78;;;22.00;99.90;;;;;;5050120;28;20059;-48
2021/08/17 03:35:16;;;;;;;22.80;7.25;;;22.00;99.90;;;;;;5049879;28;20044;-47
2021/08/17 03:38:20;;;;;;;23.17;7.72;;;22.00;99.90;;;;;;5049434;28;20044;-49
2021/08/17 03:41:24;;;;;;;26.80;7.97;;;22.00;99.90;;;;;;5049885;28;20044;-48
2021/08/17 03:44:28;;;;;;;22.60;7.38;;;22.00;99.90;;;;;;5049625;28;20561;-49
2021/08/17 03:47:32;;;;;;;22.95;8.05;;;21.90;99.90;;;;;;5049593;28;20269;-47
2021/08/17 03:50:36;;;;;;;21.92;7.93;;;22.00;99.90;;;;;;5049553;28;20044;-48
2021/08/17 03:53:41;;;;;;;33.35;8.38;;;21.90;99.90;;;;;;5049573;28;20414;-53
2021/08/17 03:56:46;;;;;;;23.02;7.65;;;22.00;99.90;;;;;;5049446;28;20064;-48
2021/08/17 03:59:50;;;;;;;21.27;7.47;;;21.90;99.90;;;;;;5048923;28;20032;-47
2021/08/17 04:02:55;;;;;;;21.80;7.28;;;21.90;99.90;;;;;;5049582;28;20040;-47
2021/08/17 04:05:59;;;;;;;23.65;8.02;;;21.90;99.90;;;;;;5049407;28;20044;-47
2021/08/17 04:09:03;;;;;;;25.27;7.78;;;21.90;99.90;;;;;;5048449;28;20040;-49
2021/08/17 04:12:08;;;;;;;18.05;8.13;;;21.80;99.90;;;;;;5049403;28;20047;-48
2021/08/17 04:15:13;;;;;;;16.10;7.30;;;21.80;99.90;;;;;;5049418;28;20052;-48
2021/08/17 04:18:17;;;;;;;20.77;7.63;;;21.80;99.90;;;;;;5049163;28;20036;-48
2021/08/17 04:21:21;;;;;;;17.13;7.63;;;21.80;99.90;;;;;;5049352;28;20513;-49
2021/08/17 04:24:25;;;;;;;18.83;7.88;;;21.70;99.90;;;;;;5049240;28;20044;-48
2021/08/17 04:27:30;;;;;;;25.60;8.40;;;21.70;99.90;;;;;;5049013;28;20067;-52
2021/08/17 04:30:33;;;;;;;29.35;9.07;;;21.50;99.90;;;;;;5048706;28;20048;-49
2021/08/17 04:33:38;;;;;;;22.52;8.05;;;21.40;99.90;;;;;;5049171;28;20317;-48
2021/08/17 04:36:42;;;;;;;16.40;7.88;;;21.40;99.90;;;;;;5053049;28;20415;-48
2021/08/17 04:39:45;;;;;;;24.30;7.80;;;21.50;99.90;;;;;;5052631;28;20044;-48
2021/08/17 04:42:49;;;;;;;22.35;8.10;;;21.50;99.90;;;;;;5052884;28;20044;-48
2021/08/17 04:45:54;;;;;;;18.85;7.82;;;21.60;99.90;;;;;;5052671;28;20048;-47
2021/08/17 04:48:58;;;;;;;25.27;8.30;;;21.60;99.90;;;;;;5052728;28;20040;-47
2021/08/17 04:52:02;;;;;;;22.15;8.65;;;21.60;99.90;;;;;;5052651;28;20048;-49
2021/08/17 04:55:07;;;;;;;16.85;7.60;;;21.60;99.90;;;;;;5052922;28;20513;-48
2021/08/17 04:58:11;;;;;;;15.88;7.53;;;21.60;99.90;;;;;;5052210;28;20043;-47
2021/08/17 05:01:15;;;;;;;24.02;7.53;;;21.70;99.90;;;;;;5052717;28;20036;-47
2021/08/17 05:04:19;;;;;;;16.90;7.88;;;21.70;99.90;;;;;;5052550;28;20068;-49
2021/08/17 05:07:23;;;;;;;21.70;8.40;;;21.80;99.90;;;;;;5052594;28;20047;-50
2021/08/17 05:10:27;;;;;;;24.02;7.68;;;21.80;99.90;;;;;;5051651;28;20052;-48
2021/08/17 05:13:31;;;;;;;21.80;8.15;;;22.00;99.90;;;;;;5052376;28;20151;-50
2021/08/17 05:16:35;;;;;;;19.92;7.82;;;22.20;99.90;;;;;;5052783;28;20051;-48
2021/08/17 05:19:39;;;;;;;23.88;7.82;;;22.80;99.90;;;;;;5052057;28;20047;-48
2021/08/17 05:22:44;;;;;;;17.10;7.90;;;24.30;99.90;;;;;;5052138;28;20060;-48
2021/08/17 05:25:49;;;;;;;16.23;7.65;;;25.60;99.90;;;;;;5052560;28;20052;-48
2021/08/17 05:28:53;;;;;;;24.15;7.60;;;26.70;98.10;;;;;;5051644;28;20048;-47
2021/08/17 05:31:58;;;;;;;21.13;7.70;;;27.90;96.10;;;;;;5052266;28;20317;-46
2021/08/17 05:35:02;;;;;;;26.15;8.13;;;29.00;93.70;;;;;;5052163;28;20048;-49
2021/08/17 05:38:07;;;;;;;24.45;7.95;;;29.80;91.90;;;;;;5052231;28;20044;-51
2021/08/17 05:41:11;;;;;;;18.23;8.05;;;30.50;90.70;;;;;;5051489;28;20044;-49
2021/08/17 05:44:17;;;;;;;18.88;7.18;;;30.80;90.20;;;;;;5052168;28;20055;-48
2021/08/17 05:47:22;;;;;;;26.70;6.70;;;31.40;90.60;;;;;;5051967;28;20051;-48
2021/08/17 05:50:26;;;;;;;22.60;7.70;;;31.30;90.90;;;;;;5051815;28;20036;-49
2021/08/17 05:53:30;;;;;;;17.52;6.47;;;31.60;91.30;;;;;;5051982;28;20426;-48
2021/08/17 05:56:34;;;;;;;19.90;6.93;;;32.30;90.90;;;;;;5051791;28;20048;-48
2021/08/17 05:59:38;;;;;;;19.80;6.47;;;33.10;89.80;;;;;;5051078;28;20044;-48
2021/08/17 06:02:42;;;;;;;23.83;7.15;;;33.90;88.30;;;;;;5051450;28;20411;-49
2021/08/17 06:05:46;;;;;;;18.40;6.93;;;34.20;86.10;;;;;;5051530;28;20052;-48
2021/08/17 06:08:51;;;;;;;17.40;6.22;;;34.20;86.20;;;;;;5051300;28;20534;-49
2021/08/17 06:11:57;;;;;;;15.32;6.38;;;34.40;85.70;;;;;;5051349;28;20052;-48
2021/08/17 06:15:01;;;;;;;20.95;6.15;;;34.70;84.30;;;;;;5051294;28;20048;-48
2021/08/17 06:18:07;;;;;;;20.20;6.25;;;34.90;84.10;;;;;;5051299;28;20040;-49
2021/08/17 06:21:12;;;;;;;16.42;6.45;;;34.90;83.30;;;;;;5051547;28;20043;-49
2021/08/17 06:24:16;;;;;;;18.50;6.40;;;34.70;83.20;;;;;;5051442;28;20044;-49
2021/08/17 06:27:20;;;;;;;19.58;6.43;;;34.80;81.90;;;;;;5051604;28;20044;-49
2021/08/17 06:30:24;;;;;;;18.92;6.20;;;35.10;81.50;;;;;;5051116;28;20048;-49
2021/08/17 06:33:29;;;;;;;20.45;6.35;;;35.30;80.70;;;;;;5051310;28;20043;-49
2021/08/17 06:36:36;;;;;;;19.33;6.38;;;35.10;80.40;;;;;;5051480;28;20545;-48
2021/08/17 06:39:40;;;;;;;23.63;6.75;;;35.00;80.40;;;;;;5050626;28;20044;-47
2021/08/17 06:42:44;;;;;;;20.05;6.47;;;35.30;79.60;;;;;;5050053;28;20048;-51
2021/08/17 06:45:49;;;;;;;18.23;5.90;;;35.50;79.40;;;;;;5034534;28;20530;-47
2021/08/17 06:48:54;;;;;;;19.30;5.63;;;36.00;78.20;;;;;;5031116;28;20052;-50
2021/08/17 06:51:58;;;;;;;15.68;5.18;;;36.60;77.10;;;;;;5030767;28;20511;-47
2021/08/17 06:55:03;;;;;;;12.18;5.38;;;37.00;76.10;;;;;;5030794;28;20052;-49
2021/08/17 06:58:12;;;;;;;20.95;6.20;;;37.20;75.70;;;;;;5029217;28;20052;-46
2021/08/17 07:01:16;;;;;;;20.55;6.10;;;37.20;74.90;;;;;;5030359;28;20052;-49
2021/08/17 07:04:20;;;;;;;14.82;6.43;;;37.20;74.50;;;;;;5032555;28;20502;-53
2021/08/17 07:07:25;;;;;;;21.35;6.53;;;37.10;74.30;;;;;;5050692;28;20060;-46
2021/08/17 07:10:29;;;;;;;14.07;5.72;;;37.40;73.50;;;;;;5050216;28;20541;-47
2021/08/17 07:13:33;;;;;;;18.02;6.00;;;37.50;73.50;;;;;;5050690;28;20247;-47
2021/08/17 07:16:40;;;;;;;18.75;5.47;;;35.30;75.80;;;;;;5050495;28;20406;-50
2021/08/17 07:19:44;;;;;;;17.05;6.70;;;34.60;77.20;;;;;;5050166;28;20044;-49
2021/08/17 07:22:48;;;;;;;21.25;6.22;;;33.40;79.20;;;;;;5049947;28;20498;-48
2021/08/17 07:25:53;;;;;;;16.63;5.85;;;33.00;79.20;;;;;;5049997;28;20410;-49
2021/08/17 07:28:57;;;;;;;18.33;5.72;;;34.30;79.00;;;;;;5049983;28;20427;-55
2021/08/17 07:32:01;;;;;;;20.05;6.22;;;36.30;75.50;;;;;;5049450;28;20433;-51
2021/08/17 07:35:09;;;;;;;20.90;6.60;;;36.40;73.40;;;;;;5050160;28;20052;-52
2021/08/17 07:38:14;;;;;;;14.30;5.43;;;35.30;74.40;;;;;;5049618;28;20048;-49
2021/08/17 07:41:18;;;;;;;19.45;5.95;;;33.40;78.40;;;;;;5049267;28;20385;-48
2021/08/17 07:44:22;;;;;;;17.80;7.00;;;33.70;79.00;;;;;;5049746;28;20060;-48
2021/08/17 07:47:27;;;;;;;19.20;6.07;;;34.60;77.20;;;;;;5049638;28;20044;-49
2021/08/17 07:50:31;;;;;;;21.67;5.75;;;36.40;73.80;;;;;;5049256;28;20055;-50
2021/08/17 07:53:35;;;;;;;17.33;6.47;;;37.00;72.60;;;;;;5049625;28;20044;-50
2021/08/17 07:56:39;;;;;;;22.58;6.78;;;35.70;71.60;;;;;;5049362;28;20094;-47
2021/08/17 07:59:43;;;;;;;14.10;6.25;;;34.50;73.50;;;;;;5049515;28;20044;-47
2021/08/17 08:02:47;;;;;;;16.08;6.63;;;34.90;74.30;;;;;;5048962;28;20052;-48
2021/08/17 08:05:52;;;;;;;18.15;5.70;;;36.90;72.00;;;;;;5049272;28;20052;-48
2021/08/17 08:08:56;;;;;;;15.43;5.53;;;38.50;69.90;;;;;;5037210;28;20298;-50
2021/08/17 08:12:00;;;;;;;14.45;5.50;;;39.10;67.90;;;;;;5048911;28;20056;-46
2021/08/17 08:15:05;;;;;;;15.35;5.50;;;37.60;69.80;;;;;;5049562;28;20052;-45
2021/08/17 08:18:11;;;;;;;18.75;5.95;;;38.70;67.70;;;;;;5048353;28;20040;-47
2021/08/17 08:21:15;;;;;;;19.13;5.85;;;39.20;66.90;;;;;;5049043;28;20541;-46
2021/08/17 08:24:19;;;;;;;18.75;5.65;;;35.80;68.70;;;;;;5049554;28;20055;-48
2021/08/17 08:27:22;;;;;;;19.13;6.15;;;36.90;69.70;;;;;;5049406;28;20040;-46
2021/08/17 08:30:27;;;;;;;15.30;6.20;;;38.20;66.60;;;;;;5049382;28;20040;-46
2021/08/17 08:33:31;;;;;;;18.77;6.47;;;36.60;67.30;;;;;;5049247;28;20052;-46
2021/08/17 08:36:35;;;;;;;17.45;6.35;;;35.60;67.10;;;;;;5049122;28;20044;-55
2021/08/17 08:39:39;;;;;;;12.50;5.63;;;36.90;66.70;;;;;;5049167;28;20048;-47
2021/08/17 08:42:46;;;;;;;21.73;6.57;;;39.10;65.40;;;;;;5048750;28;20040;-50
2021/08/17 08:45:50;;;;;;;19.70;5.78;;;39.60;63.80;;;;;;5049152;28;20048;-46
2021/08/17 08:48:54;;;;;;;16.02;5.72;;;38.50;64.10;;;;;;5048986;28;20048;-46
2021/08/17 08:52:01;;;;;;;15.63;5.70;;;40.50;62.60;;;;;;5048522;28;20044;-47
2021/08/17 08:55:07;;;;;;;18.42;6.95;;;39.80;60.60;;;;;;5048994;28;20044;-47
2021/08/17 08:58:13;;;;;;;13.68;5.90;;;36.20;63.40;;;;;;5048984;28;20044;-46
2021/08/17 09:01:22;;;;;;;15.70;6.43;;;39.50;62.30;;;;;;5049124;28;20414;-51
2021/08/17 09:04:26;;;;;;;18.53;6.40;;;42.20;59.40;;;;;;5048929;28;20032;-46
2021/08/17 09:07:42;;;;;;;14.70;6.00;;;42.40;58.30;;;;;;5048757;28;20048;-48
2021/08/17 09:10:46;;;;;;;14.05;5.68;;;42.30;57.70;;;;;;5049088;28;20048;-50
2021/08/17 09:13:50;;;;;;;14.98;6.28;;;40.20;57.90;;;;;;5048379;28;20557;-47
2021/08/17 09:17:04;;;;;;;11.90;5.93;;;42.30;57.50;;;;;;5048804;28;20044;-46
2021/08/17 09:20:13;;;;;;;12.63;6.38;;;42.70;55.80;;;;;;5048579;28;20040;-46
2021/08/17 09:23:30;;;;;;;14.73;6.30;;;42.50;55.50;;;;;;5051133;28;20044;-47
2021/08/17 09:26:42;;;;;;;13.40;7.10;;;40.20;57.80;;;;;;5052384;28;20044;-49
2021/08/17 09:29:58;;;;;;;14.90;6.50;;;41.60;56.90;;;;;;5052309;28;20036;-46
2021/08/17 09:33:03;;;;;;;15.75;6.25;;;42.60;55.70;;;;;;5051670;28;20040;-46
2021/08/17 09:36:09;;;;;;;16.23;6.15;;;42.20;55.80;;;;;;5052183;28;20048;-46
2021/08/17 09:39:40;;;;;;;13.38;6.32;;;42.40;55.60;;;;;;5051957;28;20044;-52
2021/08/17 09:42:45;;;;;;;13.80;5.88;;;39.90;57.90;;;;;;5051168;28;20040;-47
2021/08/17 09:45:51;;;;;;;13.00;5.97;;;41.50;55.70;;;;;;5051264;28;20044;-46
2021/08/17 09:48:56;;;;;;;18.67;7.13;;;42.10;55.50;;;;;;5052024;28;20051;-47
2021/08/17 09:52:15;;;;;;;12.70;5.85;;;43.90;55.30;;;;;;5051747;28;20048;-47
2021/08/17 09:55:21;;;;;;;14.93;5.80;;;45.80;53.30;;;;;;5051783;28;20040;-47
2021/08/17 09:58:27;;;;;;;16.58;6.00;;;44.60;53.50;;;;;;5051398;28;20514;-48
2021/08/17 10:01:32;;;;;;;15.50;6.15;;;44.50;54.10;;;;;;5051997;28;20047;-47
2021/08/17 10:04:40;;;;;;;14.23;6.07;;;44.70;53.90;;;;;;5051362;28;20052;-46
2021/08/17 10:07:44;;;;;;;12.90;6.15;;;46.70;52.90;;;;;;5051582;28;20410;-48
2021/08/17 10:10:52;;;;;;;14.25;6.28;;;46.70;51.60;;;;;;5051288;28;20060;-47
2021/08/17 10:13:57;;;;;;;17.77;5.55;;;48.10;51.50;;;;;;5051143;28;20064;-48
2021/08/17 10:17:00;;;;;;;12.07;5.50;;;49.30;50.30;;;;;;5051289;28;20120;-46
2021/08/17 10:20:05;;;;;;;14.57;5.53;;;50.10;49.90;;;;;;5050179;28;20040;-48
2021/08/17 10:23:22;;;;;;;13.40;5.50;;;50.60;49.20;;;;;;5050901;28;20048;-49
2021/08/17 10:26:31;;;;;;;9.93;5.50;;;50.80;48.70;;;;;;5051392;28;20043;-47
2021/08/17 10:29:35;;;;;;;10.77;5.60;;;51.20;48.50;;;;;;5050876;28;20048;-47
2021/08/17 10:32:45;;;;;;;9.93;5.40;;;50.80;48.50;;;;;;5050760;28;20052;-50
2021/08/17 10:35:54;;;;;;;9.02;4.95;;;49.40;48.40;;;;;;5050878;28;20403;-50
2021/08/17 10:39:00;;;;;;;19.05;6.32;;;49.70;48.50;;;;;;5050826;28;20044;-51
2021/08/17 10:42:24;;;;;;;11.40;5.28;;;44.40;49.80;;;;;;5050944;28;20044;-46
2021/08/17 10:45:28;;;;;;;12.65;5.05;;;46.00;50.90;;;;;;5050563;28;20044;-48
2021/08/17 10:52:01;;;;;;;12.63;4.93;;;48.30;49.10;;;;;;5050726;28;20517;-47
2021/08/17 10:55:31;;;;;;;15.40;5.32;;;48.70;48.50;;;;;;5050454;28;20048;-47
2021/08/17 10:58:41;;;;;;;10.77;4.38;;;45.50;48.50;;;;;;5039359;22;20060;-54
2021/08/17 11:01:46;;;;;;;11.73;4.45;;;45.60;50.30;;;;;;5005837;28;20503;-55
2021/08/17 11:04:51;;;;;;;9.07;3.92;;;46.10;50.50;;;;;;4994332;28;20049;-53
2021/08/17 11:08:31;;;;;;;9.73;4.45;;;47.10;49.20;;;;;;5009801;28;20053;-53
2021/08/17 11:11:38;;;;;;;7.53;3.40;;;47.60;48.80;;;;;;5010312;28;20041;-53
2021/08/17 11:14:44;;;;;;;7.30;2.60;;;48.00;47.60;;;;;;5010624;28;20038;-54
2021/08/17 11:17:49;;;;;;;8.15;2.83;;;48.70;46.30;;;;;;4990615;28;20053;-52
2021/08/17 11:20:57;;;;;;;8.85;2.63;;;48.70;45.90;;;;;;4990863;28;20045;-53
2021/08/17 11:24:09;;;;;;;6.30;2.60;;;49.60;45.20;;;;;;4992516;28;20045;-55
2021/08/17 11:27:17;;;;;;;8.52;2.75;;;50.20;44.90;;;;;;5010408;28;20045;-53
2021/08/17 11:30:23;;;;;;;4.72;2.30;;;50.10;44.40;;;;;;5010178;28;20041;-53
2021/08/17 11:33:28;;;;;;;8.20;2.28;;;50.00;44.00;;;;;;5010169;28;20189;-52
2021/08/17 11:36:32;;;;;;;7.25;2.25;;;50.00;43.80;;;;;;5009972;28;20057;-53
2021/08/17 11:39:49;;;;;;;3.92;1.95;;;50.20;43.20;;;;;;5010032;28;20044;-54
2021/08/17 11:42:58;;;;;;;3.63;1.90;;;49.80;43.30;;;;;;5010041;28;20038;-52
2021/08/17 11:46:02;;;;;;;4.05;2.00;;;50.40;43.00;;;;;;5010108;28;20042;-52
2021/08/17 11:49:21;;;;;;;5.75;2.08;;;48.50;43.10;;;;;;5010102;28;20053;-54
2021/08/17 11:52:27;;;;;;;;;;;48.40;43.10;;;;;;5010344;28;20511;-55
2021/08/17 11:55:34;;;;;;;4.68;1.90;;;47.70;43.60;;;;;;5009543;28;19920;-52
2021/08/17 11:58:39;;;;;;;4.63;2.05;;;47.50;43.30;;;;;;5009710;28;20045;-52
2021/08/17 12:01:57;;;;;;;4.90;1.80;;;47.40;44.00;;;;;;5009737;28;20040;-53
2021/08/17 12:05:19;;;;;;;3.60;1.70;;;48.00;42.90;;;;;;5009767;28;20026;-53
2021/08/17 12:08:24;;;;;;;3.65;1.38;;;47.50;42.70;;;;;;5020177;28;20038;-52
2021/08/17 12:11:28;;;;;;;3.58;1.30;;;48.30;42.90;;;;;;5009843;28;20041;-52
2021/08/17 12:14:32;;;;;;;5.18;1.88;;;47.80;42.60;;;;;;5009581;28;20291;-53
2021/08/17 12:17:36;;;;;;;3.38;1.75;;;48.50;43.00;;;;;;4989816;28;20042;-55
2021/08/17 12:20:53;;;;;;;5.80;2.17;;;48.40;42.60;;;;;;4990426;28;20448;-53
2021/08/17 12:23:57;;;;;;;3.85;1.60;;;47.50;42.50;;;;;;4989850;28;20042;-53
2021/08/17 12:27:03;;;;;;;3.35;1.60;;;47.50;42.90;;;;;;4990000;28;20049;-52
2021/08/17 12:30:09;;;;;;;5.65;1.40;;;48.40;42.40;;;;;;4990396;28;20519;-52
2021/08/17 12:33:13;;;;;;;3.92;1.50;;;48.50;42.20;;;;;;4990373;28;20147;-52
2021/08/17 12:36:19;;;;;;;2.90;1.40;;;48.10;42.10;;;;;;4989849;28;20043;-51
2021/08/17 12:39:28;;;;;;;8.07;1.50;;;48.40;41.70;;;;;;4990217;28;20511;-54
2021/08/17 12:42:39;;;;;;;3.05;1.42;;;47.60;41.80;;;;;;4990159;28;20042;-52
2021/08/17 12:45:43;;;;;;;2.13;1.38;;;48.00;41.90;;;;;;4989997;28;20053;-53
2021/08/17 12:48:48;;;;;;;2.10;1.35;;;47.60;41.90;;;;;;4990011;28;20049;-52
2021/08/17 12:51:52;;;;;;;2.72;1.40;;;46.50;42.20;;;;;;4989915;28;20049;-52
2021/08/17 12:55:23;;;;;;;4.18;1.60;;;46.10;42.70;;;;;;4989995;28;20050;-52
2021/08/17 12:58:27;;;;;;;2.85;1.40;;;45.30;42.80;;;;;;4993193;28;20421;-51
2021/08/17 13:01:30;;;;;;;9.20;2.00;;;44.90;43.40;;;;;;4993650;28;20416;-52
2021/08/17 13:04:34;;;;;;;2.85;1.50;;;44.40;43.10;;;;;;4993416;28;20393;-54
2021/08/17 13:07:39;;;;;;;2.63;1.50;;;44.10;43.10;;;;;;4993088;28;20046;-52
2021/08/17 13:10:43;;;;;;;2.13;1.55;;;44.10;42.90;;;;;;4993416;28;20047;-55
2021/08/17 13:13:49;;;;;;;3.08;1.50;;;44.10;42.30;;;;;;4993323;28;20038;-51
2021/08/17 13:16:53;;;;;;;4.05;1.52;;;42.60;43.20;;;;;;5007821;28;20072;-53
2021/08/17 13:19:57;;;;;;;3.03;1.60;;;41.00;43.50;;;;;;5011936;28;20049;-50
2021/08/17 13:23:02;;;;;;;3.03;1.50;;;38.90;45.40;;;;;;5011906;28;20131;-53
2021/08/17 13:26:07;;;;;;;4.95;1.30;;;37.50;45.70;;;;;;5012615;28;20053;-52
2021/08/17 13:29:12;;;;;;;2.95;1.60;;;38.10;46.10;;;;;;5012186;28;20472;-54
2021/08/17 13:32:16;;;;;;;3.42;1.50;;;38.30;46.00;;;;;;5012737;28;20041;-56
2021/08/17 13:35:20;;;;;;;7.15;1.60;;;39.00;45.80;;;;;;5011403;28;20057;-52
2021/08/17 13:38:25;;;;;;;3.25;1.40;;;39.30;45.70;;;;;;5012201;28;20594;-51
2021/08/17 13:41:31;;;;;;;5.32;1.50;;;39.10;45.10;;;;;;5012384;28;20061;-53
2021/08/17 13:44:36;;;;;;;3.17;1.52;;;39.50;44.80;;;;;;5011710;28;20514;-52
2021/08/17 13:47:40;;;;;;;4.63;1.60;;;39.40;45.10;;;;;;5012387;28;20047;-53
2021/08/17 13:50:45;;;;;;;3.63;1.60;;;39.90;45.20;;;;;;5012619;28;20045;-52
2021/08/17 13:53:50;;;;;;;2.55;1.52;;;39.70;44.10;;;;;;5012401;28;20046;-52
2021/08/17 13:56:54;;;;;;;2.08;1.30;;;39.70;44.80;;;;;;5011984;28;20034;-52
2021/08/17 13:59:58;;;;;;;2.03;1.27;;;39.50;44.60;;;;;;5011900;28;20236;-51
2021/08/17 14:03:03;;;;;;;2.92;1.17;;;39.10;45.00;;;;;;5012187;28;20045;-52
2021/08/17 14:06:09;;;;;;;3.92;1.27;;;39.00;45.00;;;;;;5011735;28;20038;-52
2021/08/17 14:09:14;;;;;;;4.68;1.35;;;39.00;45.30;;;;;;5011697;28;20041;-52
2021/08/17 14:12:18;;;;;;;6.47;1.52;;;38.70;44.80;;;;;;5012217;28;20439;-51
2021/08/17 14:15:23;;;;;;;4.95;1.60;;;38.10;45.80;;;;;;5011200;28;20488;-51
2021/08/17 14:18:30;;;;;;;3.15;1.60;;;37.90;45.70;;;;;;5011414;28;20045;-52
2021/08/17 14:21:34;;;;;;;2.35;1.13;;;38.00;45.70;;;;;;5011650;28;20053;-53
2021/08/17 14:24:38;;;;;;;4.43;1.13;;;38.00;45.80;;;;;;5011613;28;20053;-56
2021/08/17 14:27:44;;;;;;;2.90;1.35;;;37.60;46.00;;;;;;5010282;28;20100;-52
2021/08/17 14:30:50;;;;;;;3.35;1.20;;;37.70;46.10;;;;;;5011433;28;20419;-53
2021/08/17 14:33:55;;;;;;;3.63;1.20;;;37.80;46.40;;;;;;5011645;28;20596;-52
2021/08/17 14:36:59;;;;;;;2.70;1.65;;;37.60;46.20;;;;;;5010934;28;20057;-52
2021/08/17 14:40:05;;;;;;;3.63;1.40;;;37.60;46.40;;;;;;5011027;28;20530;-52
2021/08/17 14:43:10;;;;;;;4.63;1.60;;;37.50;46.40;;;;;;5011353;28;20090;-54
2021/08/17 14:46:14;;;;;;;3.65;1.52;;;37.30;46.80;;;;;;5010808;28;20042;-52
2021/08/17 14:49:19;;;;;;;4.10;1.75;;;37.40;47.20;;;;;;5010997;28;20409;-51
2021/08/17 14:52:23;;;;;;;1.85;1.33;;;37.40;46.90;;;;;;5011182;28;20045;-52
2021/08/17 14:55:28;;;;;;;1.60;1.27;;;37.10;47.40;;;;;;5010949;28;20052;-53
2021/08/17 14:58:33;;;;;;;2.20;1.35;;;36.80;47.20;;;;;;5010503;28;20432;-52
2021/08/17 15:01:37;;;;;;;4.45;1.50;;;36.60;47.80;;;;;;5010842;28;20039;-52
2021/08/17 15:04:42;;;;;;;3.17;1.40;;;36.50;47.70;;;;;;5011234;28;20026;-52
2021/08/17 15:07:47;;;;;;;4.25;1.63;;;36.60;48.00;;;;;;5010117;28;20049;-51
2021/08/17 15:10:52;;;;;;;5.95;1.50;;;36.50;48.50;;;;;;5010612;28;20040;-52
2021/08/17 15:13:56;;;;;;;5.80;1.75;;;36.40;48.40;;;;;;5010977;28;20431;-52
2021/08/17 15:17:00;;;;;;;3.67;1.60;;;36.20;48.70;;;;;;5009977;28;20066;-52
2021/08/17 15:20:09;;;;;;;6.03;1.20;;;36.00;48.50;;;;;;5009960;28;20030;-53
2021/08/17 15:23:14;;;;;;;2.28;1.25;;;35.80;48.90;;;;;;5010732;28;20034;-52
2021/08/17 15:26:19;;;;;;;2.53;1.27;;;35.70;49.40;;;;;;5010153;28;20046;-52
2021/08/17 15:29:23;;;;;;;3.10;1.27;;;35.60;49.70;;;;;;4990699;28;20046;-53
2021/08/17 15:32:30;;;;;;;8.35;1.38;;;35.40;50.20;;;;;;4990650;28;20038;-52
2021/08/17 15:35:34;;;;;;;7.10;1.88;;;35.20;50.30;;;;;;4990760;28;20041;-52
2021/08/17 15:38:38;;;;;;;4.25;1.33;;;35.10;50.50;;;;;;4989994;28;20037;-53
2021/08/17 15:41:43;;;;;;;4.60;1.42;;;35.00;50.70;;;;;;4990390;28;20039;-52
2021/08/17 15:44:48;;;;;;;4.40;1.30;;;34.90;50.90;;;;;;4990683;28;20061;-51
2021/08/17 15:47:52;;;;;;;3.90;1.50;;;34.70;51.40;;;;;;4989892;28;20491;-53
2021/08/17 15:50:56;;;;;;;7.07;1.50;;;34.60;51.60;;;;;;4990462;28;20042;-52
2021/08/17 15:54:00;;;;;;;8.50;1.95;;;34.40;51.60;;;;;;4990368;28;20049;-53
2021/08/17 15:57:06;;;;;;;5.97;1.42;;;34.40;52.30;;;;;;4989610;28;20047;-52
2021/08/17 16:00:15;;;;;;;3.72;1.27;;;34.20;52.20;;;;;;4990488;28;20046;-51
2021/08/17 16:03:19;;;;;;;3.63;1.40;;;34.00;52.90;;;;;;4990203;28;20046;-53